sensor_id;sensor_type;location;lat;lon;timestamp;pressure;altitude;pressure_sealevel;temperature;humidity
62725;BME280;49026;52.600;4.694;2023-04-30T00:00:58;102449.69;;;4.95;59.27
62725;BME280;49026;52.600;4.694;2023-04-30T00:03:23;102447.06;;;4.92;59.55
62725;BME280;49026;52.600;4.694;2023-04-30T00:05:49;102438.38;;;4.90;59.15
62725;BME280;49026;52.600;4.694;2023-04-30T00:08:15;102442.69;;;4.89;59.23
62725;BME280;49026;52.600;4.694;2023-04-30T00:10:43;102434.88;;;4.86;59.48
62725;BME280;49026;52.600;4.694;2023-04-30T00:13:09;102434.84;;;4.85;59.22
62725;BME280;49026;52.600;4.694;2023-04-30T00:15:35;102435.69;;;4.83;59.41
62725;BME280;49026;52.600;4.694;2023-04-30T00:18:02;102440.03;;;4.81;59.47
62725;BME280;49026;52.600;4.694;2023-04-30T00:20:31;102432.22;;;4.81;59.80
62725;BME280;49026;52.600;4.694;2023-04-30T00:22:56;102440.00;;;4.80;59.49
62725;BME280;49026;52.600;4.694;2023-04-30T00:25:21;102442.59;;;4.78;60.06
62725;BME280;49026;52.600;4.694;2023-04-30T00:27:48;102440.84;;;4.77;59.46
62725;BME280;49026;52.600;4.694;2023-04-30T00:30:14;102444.31;;;4.76;59.39
62725;BME280;49026;52.600;4.694;2023-04-30T00:32:39;102448.63;;;4.73;59.61
62725;BME280;49026;52.600;4.694;2023-04-30T00:35:05;102444.28;;;4.73;59.65
62725;BME280;49026;52.600;4.694;2023-04-30T00:37:30;102445.16;;;4.74;59.77
62725;BME280;49026;52.600;4.694;2023-04-30T00:39:56;102448.63;;;4.74;59.75
62725;BME280;49026;52.600;4.694;2023-04-30T00:42:21;102454.72;;;4.73;60.00
62725;BME280;49026;52.600;4.694;2023-04-30T00:44:48;102451.19;;;4.68;59.73
62725;BME280;49026;52.600;4.694;2023-04-30T00:47:14;102452.00;;;4.64;59.89
62725;BME280;49026;52.600;4.694;2023-04-30T00:49:39;102461.53;;;4.62;60.10
62725;BME280;49026;52.600;4.694;2023-04-30T00:52:04;102464.09;;;4.59;59.83
62725;BME280;49026;52.600;4.694;2023-04-30T00:54:30;102463.22;;;4.58;59.93
62725;BME280;49026;52.600;4.694;2023-04-30T00:56:57;102463.22;;;4.57;60.38
62725;BME280;49026;52.600;4.694;2023-04-30T00:59:23;102460.56;;;4.52;59.78
62725;BME280;49026;52.600;4.694;2023-04-30T01:01:53;102458.78;;;4.48;60.05
62725;BME280;49026;52.600;4.694;2023-04-30T01:04:21;102461.41;;;4.50;60.04
62725;BME280;49026;52.600;4.694;2023-04-30T01:06:48;102456.19;;;4.50;60.29
62725;BME280;49026;52.600;4.694;2023-04-30T01:09:14;102461.38;;;4.47;60.10
62725;BME280;49026;52.600;4.694;2023-04-30T01:11:58;102463.97;;;4.47;59.85
62725;BME280;49026;52.600;4.694;2023-04-30T01:14:30;102460.50;;;4.48;59.89
62725;BME280;49026;52.600;4.694;2023-04-30T01:17:05;102469.13;;;4.43;60.11
62725;BME280;49026;52.600;4.694;2023-04-30T01:19:41;102456.09;;;4.40;59.92
62725;BME280;49026;52.600;4.694;2023-04-30T01:22:11;102464.75;;;4.39;59.79
62725;BME280;49026;52.600;4.694;2023-04-30T01:24:52;102463.88;;;4.39;59.88
62725;BME280;49026;52.600;4.694;2023-04-30T01:30:24;102461.25;;;4.37;59.89
62725;BME280;49026;52.600;4.694;2023-04-30T01:32:50;102461.22;;;4.36;60.01
62725;BME280;49026;52.600;4.694;2023-04-30T01:35:16;102457.75;;;4.35;59.68
62725;BME280;49026;52.600;4.694;2023-04-30T01:37:59;102449.94;;;4.34;59.76
62725;BME280;49026;52.600;4.694;2023-04-30T01:43:30;102454.22;;;4.30;59.89
62725;BME280;49026;52.600;4.694;2023-04-30T01:53:56;102455.88;;;4.22;59.95
62725;BME280;49026;52.600;4.694;2023-04-30T01:56:31;102459.31;;;4.21;60.21
62725;BME280;49026;52.600;4.694;2023-04-30T01:59:00;102452.38;;;4.20;59.66
62725;BME280;49026;52.600;4.694;2023-04-30T02:01:27;102454.97;;;4.20;59.41
62725;BME280;49026;52.600;4.694;2023-04-30T02:03:52;102450.63;;;4.19;59.45
62725;BME280;49026;52.600;4.694;2023-04-30T02:06:20;102453.22;;;4.19;59.83
62725;BME280;49026;52.600;4.694;2023-04-30T02:08:46;102452.34;;;4.17;59.58
62725;BME280;49026;52.600;4.694;2023-04-30T02:11:11;102452.28;;;4.14;60.08
62725;BME280;49026;52.600;4.694;2023-04-30T02:13:36;102444.50;;;4.14;60.19
62725;BME280;49026;52.600;4.694;2023-04-30T02:16:02;102451.44;;;4.13;59.90
62725;BME280;49026;52.600;4.694;2023-04-30T02:18:28;102445.34;;;4.14;59.91
62725;BME280;49026;52.600;4.694;2023-04-30T02:20:53;102447.09;;;4.14;60.16
62725;BME280;49026;52.600;4.694;2023-04-30T02:23:18;102449.72;;;4.15;60.58
62725;BME280;49026;52.600;4.694;2023-04-30T02:25:46;102439.28;;;4.14;60.21
62725;BME280;49026;52.600;4.694;2023-04-30T02:28:11;102441.00;;;4.12;60.08
62725;BME280;49026;52.600;4.694;2023-04-30T02:30:38;102433.19;;;4.12;60.53
62725;BME280;49026;52.600;4.694;2023-04-30T02:33:06;102434.06;;;4.12;60.27
62725;BME280;49026;52.600;4.694;2023-04-30T02:35:31;102432.34;;;4.11;60.72
62725;BME280;49026;52.600;4.694;2023-04-30T02:37:59;102432.28;;;4.08;60.28
62725;BME280;49026;52.600;4.694;2023-04-30T02:40:26;102439.22;;;4.06;60.69
62725;BME280;49026;52.600;4.694;2023-04-30T02:42:54;102431.38;;;4.04;60.63
62725;BME280;49026;52.600;4.694;2023-04-30T02:45:21;102436.53;;;4.00;60.30
62725;BME280;49026;52.600;4.694;2023-04-30T02:47:46;102433.84;;;3.95;60.48
62725;BME280;49026;52.600;4.694;2023-04-30T02:50:11;102439.91;;;3.94;60.56
62725;BME280;49026;52.600;4.694;2023-04-30T02:52:37;102430.34;;;3.92;60.87
62725;BME280;49026;52.600;4.694;2023-04-30T02:55:02;102426.00;;;3.92;60.87
62725;BME280;49026;52.600;4.694;2023-04-30T02:57:28;102425.16;;;3.93;60.89
62725;BME280;49026;52.600;4.694;2023-04-30T02:59:53;102413.88;;;3.94;60.76
62725;BME280;49026;52.600;4.694;2023-04-30T03:02:18;102417.38;;;3.95;60.38
62725;BME280;49026;52.600;4.694;2023-04-30T03:04:45;102418.22;;;3.92;60.37
62725;BME280;49026;52.600;4.694;2023-04-30T03:07:10;102418.16;;;3.89;60.86
62725;BME280;49026;52.600;4.694;2023-04-30T03:09:36;102419.88;;;3.87;60.96
62725;BME280;49026;52.600;4.694;2023-04-30T03:12:03;102415.56;;;3.86;60.31
62725;BME280;49026;52.600;4.694;2023-04-30T03:14:31;102412.06;;;3.85;60.85
62725;BME280;49026;52.600;4.694;2023-04-30T03:16:59;102416.38;;;3.85;60.29
62725;BME280;49026;52.600;4.694;2023-04-30T03:19:25;102412.03;;;3.84;60.57
62725;BME280;49026;52.600;4.694;2023-04-30T03:21:51;102416.34;;;3.82;60.53
62725;BME280;49026;52.600;4.694;2023-04-30T03:24:17;102410.25;;;3.80;60.79
62725;BME280;49026;52.600;4.694;2023-04-30T03:26:42;102414.56;;;3.78;60.48
62725;BME280;49026;52.600;4.694;2023-04-30T03:29:07;102407.63;;;3.77;60.29
62725;BME280;49026;52.600;4.694;2023-04-30T03:31:35;102414.59;;;3.79;60.80
62725;BME280;49026;52.600;4.694;2023-04-30T03:34:01;102411.09;;;3.79;60.44
62725;BME280;49026;52.600;4.694;2023-04-30T03:36:26;102411.97;;;3.78;60.84
62725;BME280;49026;52.600;4.694;2023-04-30T03:38:51;102415.41;;;3.77;61.02
62725;BME280;49026;52.600;4.694;2023-04-30T03:41:17;102413.66;;;3.76;60.70
62725;BME280;49026;52.600;4.694;2023-04-30T03:43:42;102413.66;;;3.73;60.08
62725;BME280;49026;52.600;4.694;2023-04-30T03:46:07;102414.47;;;3.71;60.48
62725;BME280;49026;52.600;4.694;2023-04-30T03:48:35;102412.69;;;3.69;60.54
62725;BME280;49026;52.600;4.694;2023-04-30T03:51:00;102411.84;;;3.68;60.69
62725;BME280;49026;52.600;4.694;2023-04-30T03:53:28;102406.63;;;3.68;60.47
62725;BME280;49026;52.600;4.694;2023-04-30T03:55:54;102406.63;;;3.68;60.84
62725;BME280;49026;52.600;4.694;2023-04-30T03:58:22;102412.69;;;3.69;60.85
62725;BME280;49026;52.600;4.694;2023-04-30T04:00:50;102408.41;;;3.69;60.59
62725;BME280;49026;52.600;4.694;2023-04-30T04:03:15;102411.03;;;3.71;60.42
62725;BME280;49026;52.600;4.694;2023-04-30T04:05:41;102411.84;;;3.68;60.85
62725;BME280;49026;52.600;4.694;2023-04-30T04:08:06;102405.75;;;3.66;60.56
62725;BME280;49026;52.600;4.694;2023-04-30T04:10:33;102403.16;;;3.66;61.15
62725;BME280;49026;52.600;4.694;2023-04-30T04:12:59;102407.47;;;3.66;61.22
62725;BME280;49026;52.600;4.694;2023-04-30T04:15:26;102406.63;;;3.68;61.22
62725;BME280;49026;52.600;4.694;2023-04-30T04:17:51;102408.41;;;3.71;60.85
62725;BME280;49026;52.600;4.694;2023-04-30T04:20:17;102412.78;;;3.74;61.33
62725;BME280;49026;52.600;4.694;2023-04-30T04:22:42;102417.19;;;3.78;61.43
62725;BME280;49026;52.600;4.694;2023-04-30T04:25:08;102417.22;;;3.84;61.31
62725;BME280;49026;52.600;4.694;2023-04-30T04:27:37;102419.03;;;3.88;61.35
62725;BME280;49026;52.600;4.694;2023-04-30T04:30:04;102419.09;;;3.94;61.10
62725;BME280;49026;52.600;4.694;2023-04-30T04:32:30;102418.34;;;4.01;61.39
62725;BME280;49026;52.600;4.694;2023-04-30T04:34:59;102413.19;;;4.07;61.77
62725;BME280;49026;52.600;4.694;2023-04-30T04:37:24;102416.72;;;4.11;61.52
62725;BME280;49026;52.600;4.694;2023-04-30T04:39:49;102415.91;;;4.17;61.79
62725;BME280;49026;52.600;4.694;2023-04-30T04:42:17;102424.66;;;4.22;61.84
62725;BME280;49026;52.600;4.694;2023-04-30T04:44:43;102426.44;;;4.26;61.83
62725;BME280;49026;52.600;4.694;2023-04-30T04:47:09;102428.22;;;4.30;62.00
62725;BME280;49026;52.600;4.694;2023-04-30T04:49:38;102433.50;;;4.36;61.96
62725;BME280;49026;52.600;4.694;2023-04-30T04:52:04;102430.94;;;4.44;61.77
62725;BME280;49026;52.600;4.694;2023-04-30T04:54:29;102431.13;;;4.58;62.16
62725;BME280;49026;52.600;4.694;2023-04-30T04:56:55;102427.09;;;4.94;62.45
62725;BME280;49026;52.600;4.694;2023-04-30T04:59:23;102429.19;;;5.38;62.08
62725;BME280;49026;52.600;4.694;2023-04-30T05:01:50;102428.53;;;5.74;61.69
62725;BME280;49026;52.600;4.694;2023-04-30T05:04:15;102432.19;;;6.04;61.44
62725;BME280;49026;52.600;4.694;2023-04-30T05:06:41;102438.41;;;6.37;61.41
62725;BME280;49026;52.600;4.694;2023-04-30T05:09:09;102445.47;;;6.74;61.53
62725;BME280;49026;52.600;4.694;2023-04-30T05:11:34;102436.78;;;7.05;61.22
62725;BME280;49026;52.600;4.694;2023-04-30T05:14:00;102441.97;;;7.33;61.30
62725;BME280;49026;52.600;4.694;2023-04-30T05:16:25;102445.41;;;7.60;61.28
62725;BME280;49026;52.600;4.694;2023-04-30T05:18:50;102449.72;;;7.87;60.85
62725;BME280;49026;52.600;4.694;2023-04-30T05:21:16;102447.88;;;8.14;61.11
62725;BME280;49026;52.600;4.694;2023-04-30T05:23:43;102452.97;;;8.40;60.88
62725;BME280;49026;52.600;4.694;2023-04-30T05:26:08;102452.00;;;8.66;60.94
62725;BME280;49026;52.600;4.694;2023-04-30T05:28:35;102452.75;;;8.82;60.60
62725;BME280;49026;52.600;4.694;2023-04-30T05:31:01;102449.25;;;8.89;61.13
62725;BME280;49026;52.600;4.694;2023-04-30T05:33:26;102462.44;;;8.74;60.92
62725;BME280;49026;52.600;4.694;2023-04-30T05:35:52;102460.84;;;8.49;61.38
62725;BME280;49026;52.600;4.694;2023-04-30T05:38:17;102460.91;;;8.26;61.89
62725;BME280;49026;52.600;4.694;2023-04-30T05:40:42;102465.31;;;8.16;62.93
62725;BME280;49026;52.600;4.694;2023-04-30T05:43:07;102468.84;;;8.15;63.65
62725;BME280;49026;52.600;4.694;2023-04-30T05:45:33;102466.16;;;8.20;64.47
62725;BME280;49026;52.600;4.694;2023-04-30T05:47:58;102466.16;;;8.25;64.60
62725;BME280;49026;52.600;4.694;2023-04-30T05:50:26;102466.16;;;8.26;64.61
62725;BME280;49026;52.600;4.694;2023-04-30T05:52:53;102467.91;;;8.26;64.42
62725;BME280;49026;52.600;4.694;2023-04-30T05:55:18;102467.91;;;8.29;64.47
62725;BME280;49026;52.600;4.694;2023-04-30T05:57:46;102469.63;;;8.30;64.54
62725;BME280;49026;52.600;4.694;2023-04-30T06:00:14;102471.38;;;8.34;64.89
62725;BME280;49026;52.600;4.694;2023-04-30T06:02:42;102471.31;;;8.40;65.54
62725;BME280;49026;52.600;4.694;2023-04-30T06:05:08;102471.31;;;8.49;67.16
62725;BME280;49026;52.600;4.694;2023-04-30T06:07:33;102474.78;;;8.51;71.53
62725;BME280;49026;52.600;4.694;2023-04-30T06:09:59;102476.47;;;8.62;71.51
62725;BME280;49026;52.600;4.694;2023-04-30T06:12:24;102475.53;;;8.74;71.44
62725;BME280;49026;52.600;4.694;2023-04-30T06:14:50;102486.81;;;8.88;72.00
62725;BME280;49026;52.600;4.694;2023-04-30T06:17:16;102478.81;;;9.05;69.81
62725;BME280;49026;52.600;4.694;2023-04-30T06:19:43;102474.34;;;9.19;71.10
62725;BME280;49026;52.600;4.694;2023-04-30T06:22:08;102479.47;;;9.35;72.13
62725;BME280;49026;52.600;4.694;2023-04-30T06:24:36;102474.09;;;9.47;73.85
62725;BME280;49026;52.600;4.694;2023-04-30T06:27:04;102471.41;;;9.55;75.02
62725;BME280;49026;52.600;4.694;2023-04-30T06:29:29;102471.41;;;9.53;71.81
62725;BME280;49026;52.600;4.694;2023-04-30T06:31:55;102469.63;;;9.57;72.74
62725;BME280;49026;52.600;4.694;2023-04-30T06:34:20;102472.16;;;9.66;71.44
62725;BME280;49026;52.600;4.694;2023-04-30T06:36:45;102475.47;;;9.85;70.22
62725;BME280;49026;52.600;4.694;2023-04-30T06:39:13;102484.94;;;9.97;69.06
62725;BME280;49026;52.600;4.694;2023-04-30T06:41:39;102478.63;;;10.15;69.80
62725;BME280;49026;52.600;4.694;2023-04-30T06:44:07;102477.50;;;10.37;70.36
62725;BME280;49026;52.600;4.694;2023-04-30T06:46:33;102488.72;;;10.49;69.65
62725;BME280;49026;52.600;4.694;2023-04-30T06:48:58;102494.47;;;10.77;68.32
62725;BME280;49026;52.600;4.694;2023-04-30T06:51:24;102488.75;;;11.09;68.00
62725;BME280;49026;52.600;4.694;2023-04-30T06:53:52;102487.56;;;11.26;69.02
62725;BME280;49026;52.600;4.694;2023-04-30T06:56:17;102495.31;;;11.37;68.68
62725;BME280;49026;52.600;4.694;2023-04-30T06:58:43;102486.41;;;11.42;68.00
62725;BME280;49026;52.600;4.694;2023-04-30T07:01:09;102488.94;;;11.48;67.96
62725;BME280;49026;52.600;4.694;2023-04-30T07:03:34;102485.91;;;11.22;68.79
62725;BME280;49026;52.600;4.694;2023-04-30T07:06:00;102486.03;;;11.12;69.63
62725;BME280;49026;52.600;4.694;2023-04-30T07:08:25;102482.44;;;11.18;69.79
62725;BME280;49026;52.600;4.694;2023-04-30T07:10:53;102484.78;;;11.35;69.87
62725;BME280;49026;52.600;4.694;2023-04-30T07:13:19;102483.63;;;11.52;69.80
62725;BME280;49026;52.600;4.694;2023-04-30T07:15:44;102483.06;;;11.82;69.50
62725;BME280;49026;52.600;4.694;2023-04-30T07:18:09;102483.84;;;11.86;68.04
62725;BME280;49026;52.600;4.694;2023-04-30T07:20:35;102485.59;;;11.89;68.80
62725;BME280;49026;52.600;4.694;2023-04-30T07:23:00;102491.59;;;11.97;68.97
62725;BME280;49026;52.600;4.694;2023-04-30T07:25:26;102492.69;;;12.30;68.70
62725;BME280;49026;52.600;4.694;2023-04-30T07:27:54;102492.25;;;12.50;68.01
62725;BME280;49026;52.600;4.694;2023-04-30T07:30:20;102495.72;;;12.52;66.90
62725;BME280;49026;52.600;4.694;2023-04-30T07:32:46;102489.09;;;12.33;66.11
62725;BME280;49026;52.600;4.694;2023-04-30T07:35:12;102490.16;;;12.24;66.51
62725;BME280;49026;52.600;4.694;2023-04-30T07:37:38;102495.41;;;12.26;66.61
62725;BME280;49026;52.600;4.694;2023-04-30T07:40:06;102496.69;;;12.06;66.18
62725;BME280;49026;52.600;4.694;2023-04-30T07:42:37;102486.41;;;11.91;65.98
62725;BME280;49026;52.600;4.694;2023-04-30T07:45:02;102481.38;;;11.80;66.29
62725;BME280;49026;52.600;4.694;2023-04-30T07:47:28;102486.59;;;11.81;65.92
62725;BME280;49026;52.600;4.694;2023-04-30T07:49:54;102491.69;;;11.91;65.78
62725;BME280;49026;52.600;4.694;2023-04-30T07:52:20;102489.31;;;11.77;65.91
62725;BME280;49026;52.600;4.694;2023-04-30T07:54:45;102490.97;;;11.81;66.35
62725;BME280;49026;52.600;4.694;2023-04-30T07:57:10;102491.69;;;11.92;66.51
62725;BME280;49026;52.600;4.694;2023-04-30T07:59:36;102494.88;;;12.10;66.36
62725;BME280;49026;52.600;4.694;2023-04-30T08:02:02;102494.84;;;12.11;65.53
62725;BME280;49026;52.600;4.694;2023-04-30T08:04:30;102492.97;;;12.16;65.60
62725;BME280;49026;52.600;4.694;2023-04-30T08:06:55;102489.19;;;12.30;65.50
62725;BME280;49026;52.600;4.694;2023-04-30T08:09:20;102491.50;;;12.45;65.34
62725;BME280;49026;52.600;4.694;2023-04-30T08:11:45;102494.06;;;12.48;64.94
62725;BME280;49026;52.600;4.694;2023-04-30T08:14:11;102493.78;;;12.60;64.88
62725;BME280;49026;52.600;4.694;2023-04-30T08:16:36;102494.09;;;12.86;65.26
62725;BME280;49026;52.600;4.694;2023-04-30T08:19:01;102504.09;;;13.09;65.28
62725;BME280;49026;52.600;4.694;2023-04-30T08:21:28;102492.38;;;13.21;64.09
62725;BME280;49026;52.600;4.694;2023-04-30T08:23:53;102494.22;;;13.17;64.40
62725;BME280;49026;52.600;4.694;2023-04-30T08:26:19;102498.47;;;13.23;64.19
62725;BME280;49026;52.600;4.694;2023-04-30T08:28:45;102486.97;;;13.27;64.16
62725;BME280;49026;52.600;4.694;2023-04-30T08:31:11;102503.59;;;13.32;64.11
62725;BME280;49026;52.600;4.694;2023-04-30T08:33:36;102486.25;;;13.20;63.75
62725;BME280;49026;52.600;4.694;2023-04-30T08:36:02;102490.69;;;13.18;63.48
62725;BME280;49026;52.600;4.694;2023-04-30T08:38:27;102483.88;;;13.08;63.84
62725;BME280;49026;52.600;4.694;2023-04-30T08:41:06;102483.44;;;13.26;64.28
62725;BME280;49026;52.600;4.694;2023-04-30T08:43:33;102486.63;;;13.41;63.91
62725;BME280;49026;52.600;4.694;2023-04-30T08:46:05;102486.78;;;13.69;64.00
62725;BME280;49026;52.600;4.694;2023-04-30T08:48:31;102491.28;;;14.28;63.42
62725;BME280;49026;52.600;4.694;2023-04-30T08:51:00;102494.66;;;14.63;63.38
62725;BME280;49026;52.600;4.694;2023-04-30T08:53:26;102488.78;;;14.81;64.02
62725;BME280;49026;52.600;4.694;2023-04-30T08:55:51;102482.72;;;15.06;64.31
62725;BME280;49026;52.600;4.694;2023-04-30T08:58:19;102486.78;;;15.16;61.74
62725;BME280;49026;52.600;4.694;2023-04-30T09:00:44;102490.03;;;14.98;61.93
62725;BME280;49026;52.600;4.694;2023-04-30T09:03:10;102488.00;;;15.06;65.23
62725;BME280;49026;52.600;4.694;2023-04-30T09:05:36;102481.09;;;15.29;62.74
62725;BME280;49026;52.600;4.694;2023-04-30T09:08:02;102477.78;;;15.22;63.76
62725;BME280;49026;52.600;4.694;2023-04-30T09:10:31;102476.34;;;15.38;66.21
62725;BME280;49026;52.600;4.694;2023-04-30T09:13:00;102483.38;;;15.65;64.08
62725;BME280;49026;52.600;4.694;2023-04-30T09:15:26;102485.97;;;15.66;61.93
62725;BME280;49026;52.600;4.694;2023-04-30T09:18:14;102485.31;;;15.60;63.59
62725;BME280;49026;52.600;4.694;2023-04-30T09:20:55;102485.50;;;15.80;63.31
62725;BME280;49026;52.600;4.694;2023-04-30T09:23:21;102480.47;;;15.72;55.40
62725;BME280;49026;52.600;4.694;2023-04-30T09:25:48;102484.09;;;15.95;63.54
62725;BME280;49026;52.600;4.694;2023-04-30T09:28:17;102481.22;;;16.25;62.98
62725;BME280;49026;52.600;4.694;2023-04-30T09:30:42;102477.81;;;16.45;63.80
62725;BME280;49026;52.600;4.694;2023-04-30T09:33:10;102473.84;;;16.55;61.12
62725;BME280;49026;52.600;4.694;2023-04-30T09:35:36;102478.59;;;16.47;62.45
62725;BME280;49026;52.600;4.694;2023-04-30T09:38:06;102468.31;;;16.16;61.67
62725;BME280;49026;52.600;4.694;2023-04-30T09:40:34;102470.19;;;16.12;64.12
62725;BME280;49026;52.600;4.694;2023-04-30T09:43:00;102470.09;;;16.15;61.14
62725;BME280;49026;52.600;4.694;2023-04-30T09:45:25;102472.72;;;16.39;62.53
62725;BME280;49026;52.600;4.694;2023-04-30T09:47:56;102473.28;;;16.47;61.93
62725;BME280;49026;52.600;4.694;2023-04-30T09:50:25;102468.16;;;16.66;61.71
62725;BME280;49026;52.600;4.694;2023-04-30T09:53:09;102465.72;;;16.82;61.44
62725;BME280;49026;52.600;4.694;2023-04-30T09:55:35;102461.13;;;16.87;62.33
62725;BME280;49026;52.600;4.694;2023-04-30T09:58:09;102469.28;;;16.59;60.85
62725;BME280;49026;52.600;4.694;2023-04-30T10:00:36;102463.16;;;16.35;61.74
62725;BME280;49026;52.600;4.694;2023-04-30T10:03:10;102464.19;;;16.54;62.35
62725;BME280;49026;52.600;4.694;2023-04-30T10:05:47;102465.44;;;16.67;62.23
62725;BME280;49026;52.600;4.694;2023-04-30T10:08:21;102459.50;;;16.83;61.54
62725;BME280;49026;52.600;4.694;2023-04-30T10:11:08;102450.75;;;16.81;58.98
62725;BME280;49026;52.600;4.694;2023-04-30T10:13:41;102455.22;;;16.79;60.48
62725;BME280;49026;52.600;4.694;2023-04-30T10:16:13;102446.94;;;16.88;61.53
62725;BME280;49026;52.600;4.694;2023-04-30T10:18:44;102451.09;;;17.16;60.56
62725;BME280;49026;52.600;4.694;2023-04-30T10:21:12;102437.81;;;17.36;61.33
62725;BME280;49026;52.600;4.694;2023-04-30T10:23:38;102444.09;;;17.34;59.58
62725;BME280;49026;52.600;4.694;2023-04-30T10:26:09;102444.41;;;17.28;61.41
62725;BME280;49026;52.600;4.694;2023-04-30T10:28:35;102443.25;;;17.54;61.06
62725;BME280;49026;52.600;4.694;2023-04-30T10:31:02;102435.19;;;17.76;55.54
62725;BME280;49026;52.600;4.694;2023-04-30T10:33:45;102442.88;;;17.82;59.98
62725;BME280;49026;52.600;4.694;2023-04-30T10:36:22;102438.66;;;18.18;61.88
62725;BME280;49026;52.600;4.694;2023-04-30T10:38:49;102444.06;;;17.95;59.21
62725;BME280;49026;52.600;4.694;2023-04-30T10:41:18;102435.50;;;17.89;62.07
62725;BME280;49026;52.600;4.694;2023-04-30T10:43:47;102438.63;;;17.99;59.77
62725;BME280;49026;52.600;4.694;2023-04-30T10:46:23;102437.56;;;18.22;54.89
62725;BME280;49026;52.600;4.694;2023-04-30T10:48:51;102428.06;;;18.16;59.30
62725;BME280;49026;52.600;4.694;2023-04-30T10:51:21;102433.38;;;17.97;54.89
62725;BME280;49026;52.600;4.694;2023-04-30T10:53:49;102425.13;;;18.03;58.14
62725;BME280;49026;52.600;4.694;2023-04-30T10:56:29;102426.69;;;18.07;57.49
62725;BME280;49026;52.600;4.694;2023-04-30T10:58:58;102430.16;;;18.09;57.82
62725;BME280;49026;52.600;4.694;2023-04-30T11:01:24;102427.81;;;18.21;58.30
62725;BME280;49026;52.600;4.694;2023-04-30T11:04:08;102423.22;;;18.43;61.10
62725;BME280;49026;52.600;4.694;2023-04-30T11:07:01;102413.03;;;18.70;58.45
62725;BME280;49026;52.600;4.694;2023-04-30T11:09:43;102410.69;;;18.82;59.40
62725;BME280;49026;52.600;4.694;2023-04-30T11:12:20;102410.34;;;18.90;57.82
62725;BME280;49026;52.600;4.694;2023-04-30T11:17:31;102404.38;;;19.37;56.11
62725;BME280;49026;52.600;4.694;2023-04-30T11:19:59;102395.25;;;19.41;57.33
62725;BME280;49026;52.600;4.694;2023-04-30T11:22:27;102387.84;;;19.63;57.46
62725;BME280;49026;52.600;4.694;2023-04-30T11:27:29;102392.66;;;19.73;56.56
62725;BME280;49026;52.600;4.694;2023-04-30T11:29:57;102398.19;;;19.70;55.29
62725;BME280;49026;52.600;4.694;2023-04-30T11:32:25;102380.59;;;19.83;57.48
62725;BME280;49026;52.600;4.694;2023-04-30T11:34:51;102386.44;;;20.06;56.73
62725;BME280;49026;52.600;4.694;2023-04-30T11:37:24;102385.16;;;19.97;55.02
62725;BME280;49026;52.600;4.694;2023-04-30T11:40:08;102381.38;;;20.01;54.86
62725;BME280;49026;52.600;4.694;2023-04-30T11:42:36;102384.56;;;20.08;55.78
62725;BME280;49026;52.600;4.694;2023-04-30T11:45:13;102372.19;;;20.07;54.53
62725;BME280;49026;52.600;4.694;2023-04-30T11:47:49;102375.94;;;20.03;53.17
62725;BME280;49026;52.600;4.694;2023-04-30T11:50:19;102372.09;;;20.08;53.19
62725;BME280;49026;52.600;4.694;2023-04-30T11:52:50;102361.25;;;20.11;52.94
62725;BME280;49026;52.600;4.694;2023-04-30T11:55:17;102365.34;;;20.01;51.65
62725;BME280;49026;52.600;4.694;2023-04-30T11:57:45;102352.91;;;20.02;52.30
62725;BME280;49026;52.600;4.694;2023-04-30T12:00:21;102356.94;;;20.09;53.02
62725;BME280;49026;52.600;4.694;2023-04-30T12:02:49;102359.50;;;20.26;52.52
62725;BME280;49026;52.600;4.694;2023-04-30T12:05:16;102354.16;;;20.26;53.53
62725;BME280;49026;52.600;4.694;2023-04-30T12:07:56;102354.69;;;20.17;52.96
62725;BME280;49026;52.600;4.694;2023-04-30T12:10:24;102347.63;;;19.84;53.24
62725;BME280;49026;52.600;4.694;2023-04-30T12:12:52;102342.84;;;19.57;51.11
62725;BME280;49026;52.600;4.694;2023-04-30T12:15:20;102350.31;;;19.51;52.58
62725;BME280;49026;52.600;4.694;2023-04-30T12:17:50;102354.00;;;19.82;52.79
62725;BME280;49026;52.600;4.694;2023-04-30T12:20:16;102346.09;;;19.96;51.20
62725;BME280;49026;52.600;4.694;2023-04-30T12:22:45;102336.47;;;19.93;53.15
62725;BME280;49026;52.600;4.694;2023-04-30T12:25:19;102334.06;;;20.05;52.32
62725;BME280;49026;52.600;4.694;2023-04-30T12:27:48;102330.47;;;20.36;53.46
62725;BME280;49026;52.600;4.694;2023-04-30T12:30:22;102326.44;;;20.59;50.96
62725;BME280;49026;52.600;4.694;2023-04-30T12:32:55;102324.53;;;20.61;52.87
62725;BME280;49026;52.600;4.694;2023-04-30T12:35:22;102323.69;;;20.77;52.85
62725;BME280;49026;52.600;4.694;2023-04-30T12:37:50;102318.25;;;20.62;51.23
62725;BME280;49026;52.600;4.694;2023-04-30T12:40:17;102317.59;;;20.59;52.16
62725;BME280;49026;52.600;4.694;2023-04-30T12:42:42;102316.78;;;20.72;52.98
62725;BME280;49026;52.600;4.694;2023-04-30T12:45:09;102322.56;;;20.95;53.46
62725;BME280;49026;52.600;4.694;2023-04-30T12:47:41;102316.88;;;21.30;52.73
62725;BME280;49026;52.600;4.694;2023-04-30T12:50:09;102313.63;;;21.39;50.20
62725;BME280;49026;52.600;4.694;2023-04-30T12:52:35;102314.38;;;21.41;51.76
62725;BME280;49026;52.600;4.694;2023-04-30T12:55:17;102313.22;;;21.74;51.84
62725;BME280;49026;52.600;4.694;2023-04-30T12:58:09;102310.44;;;22.17;51.48
62725;BME280;49026;52.600;4.694;2023-04-30T13:03:10;102305.06;;;21.49;49.30
62725;BME280;49026;52.600;4.694;2023-04-30T13:05:35;102305.72;;;21.23;50.38
62725;BME280;49026;52.600;4.694;2023-04-30T13:08:03;102301.31;;;21.22;50.75
62725;BME280;49026;52.600;4.694;2023-04-30T13:10:37;102289.44;;;21.41;50.38
62725;BME280;49026;52.600;4.694;2023-04-30T13:13:02;102303.50;;;21.30;48.96
62725;BME280;49026;52.600;4.694;2023-04-30T13:15:27;102297.56;;;20.96;49.50
62725;BME280;49026;52.600;4.694;2023-04-30T13:17:53;102285.41;;;20.76;50.53
62725;BME280;49026;52.600;4.694;2023-04-30T13:20:18;102289.81;;;20.77;50.54